WXM80 ListenWXM80 Stop

You find our weather info also at:

UK Metoffice

WeatherCloud

Weather Underground

Northeastern Weather Network

AWEKAS

Citizen Weather Observer Program (CWOP)

HAMweather, WeatherForYou, PWS Weather


Weather Underground History page Text

Daily Summary for May 20, 2018 Units:  Metric    English   Both
« Previous Day
Next Day »
Daily Weekly Monthly Yearly Custom
  Current: High: Low: Average:
Temperature: 18.9 °C 30.1 °C 11.6 °C 20.9 °C
Dew Point: 14.6 °C 23.4 °C 11.3 °C 17.8 °C
Humidity: 76 % 99 % 58 % 84 %
Wind Speed: 2.1 km/h 12.2 km/h 0 km/h 2.4 km/h
Wind Gust: 5.6 km/h 24.1 km/h - -
Wind:NNE - - WSW
Pressure: 891.5 hPa 1038.5 hPa 712.1 hPa -
Precipitation: 3.56 mm      
Historical Graphs
 
 
Tabular Data for May 20, 2018
Time Temperature Dew Point Pressure Wind Wind Speed Wind Gust Humidity Rainfall Rate (Hourly)
00:00 11.7 °C 11.4 °C 1005.6 hPa Calm     98 % 0 mm
00:05 11.7 °C 11.4 °C 1005.6 hPa Calm     98 % 0 mm
00:10 11.7 °C 11.4 °C 1005.6 hPa Calm     98 % 0 mm
00:15 11.7 °C 11.4 °C 1005.6 hPa Calm     98 % 0.25 mm
00:20 11.7 °C 11.4 °C 1005.6 hPa Calm     98 % 0.25 mm
00:25 11.7 °C 11.4 °C 1005.3 hPa Calm     98 % 0.25 mm
00:30 11.7 °C 11.4 °C 1005.3 hPa Calm     98 % 0.25 mm
00:35 11.7 °C 11.4 °C 1005.3 hPa Calm     98 % 0.25 mm
00:40 11.7 °C 11.4 °C 1005.3 hPa Calm     98 % 0.25 mm
00:45 11.6 °C 11.3 °C 1005 hPa Calm     98 % 0.25 mm
00:50 11.6 °C 11.3 °C 1004.6 hPa Calm     98 % 0.25 mm
00:55 11.6 °C 11.3 °C 1004.3 hPa Calm     98 % 0.25 mm
01:00 11.7 °C 11.4 °C 1004.3 hPa Calm     98 % 0.25 mm
01:05 11.6 °C 11.3 °C 1003.9 hPa Calm     98 % 0.25 mm
01:10 11.6 °C 11.3 °C 1003.6 hPa Calm     98 % 0.25 mm
01:15 11.7 °C 11.4 °C 1002.9 hPa Calm     98 % 0 mm
01:20 11.7 °C 11.4 °C 1002.3 hPa Calm     98 % 0 mm
01:26 11.7 °C 11.4 °C 1002.3 hPa Calm     98 % 0 mm
01:31 11.7 °C 11.4 °C 1002.3 hPa Calm     98 % 0 mm
01:36 11.7 °C 11.4 °C 982.6 hPa Calm     98 % 0 mm
01:41 11.7 °C 11.4 °C 972.1 hPa Calm     98 % 0 mm
01:46 11.7 °C 11.4 °C 913.5 hPa Calm     98 % 0 mm
01:51 11.7 °C 11.4 °C 960.3 hPa Calm     98 % 0 mm
01:56 11.7 °C 11.4 °C 963 hPa Calm     98 % 0 mm
02:00 11.7 °C 11.4 °C 946 hPa Calm     98 % 0 mm
02:06 11.8 °C 11.5 °C 946 hPa Calm     98 % 0 mm
02:11 11.8 °C 11.5 °C 946 hPa Calm     98 % 0 mm
02:16 11.8 °C 11.5 °C 946 hPa Calm     98 % 0 mm
02:20 11.8 °C 11.5 °C 946 hPa Calm     98 % 0.25 mm
02:26 11.8 °C 11.6 °C 955.5 hPa Calm     98 % 0 mm
02:30 11.8 °C 11.5 °C 955.5 hPa Calm     98 % 0 mm
02:35 11.8 °C 11.6 °C 955.5 hPa Calm     98 % 0 mm
02:41 11.8 °C 11.6 °C 955.5 hPa Calm     98 % 0.25 mm
02:45 11.8 °C 11.6 °C 955.5 hPa Calm     98 % 0 mm
02:51 11.9 °C 11.6 °C 931.5 hPa Calm     98 % 0 mm
02:55 11.9 °C 11.7 °C 931.5 hPa ENE 1.6 km/h 4.8 km/h 98 % 0 mm
03:01 12.3 °C 11.9 °C 931.5 hPa SSW 1.6 km/h 5.6 km/h 98 % 0.25 mm
03:06 12.7 °C 12.6 °C 863.1 hPa Calm   4.8 km/h 99 % 0 mm
03:11 13.4 °C 13.2 °C 847.5 hPa SW 4.8 km/h 16.1 km/h 99 % 0 mm
03:15 14.1 °C 13.9 °C 840.4 hPa SW 1.6 km/h 8 km/h 99 % 0 mm
03:19 14.7 °C 14.5 °C 840.4 hPa SW 1 km/h 13 km/h 99 % 0 mm
03:24 15.2 °C 15 °C 812 hPa SSW 5.3 km/h 14.8 km/h 99 % 0 mm
03:29 15.7 °C 15.5 °C 801.8 hPa SW 4.5 km/h 9.3 km/h 99 % 0 mm
03:34 16.1 °C 15.9 °C 795 hPa Calm   7.4 km/h 99 % 0 mm
03:39 16.4 °C 16.3 °C 776.4 hPa WSW 0.8 km/h 5.6 km/h 99 % 0 mm
03:44 16.7 °C 16.5 °C 712.1 hPa South 1 km/h 9.3 km/h 99 % 0 mm
03:49 16.8 °C 16.6 °C 801.8 hPa SW 6 km/h 11.1 km/h 99 % 0 mm
03:50 16.8 °C 16.6 °C 801.8 hPa SW 6 km/h 11.1 km/h 99 % 0 mm
03:55 16.8 °C 16.6 °C 801.8 hPa SW 6 km/h 11.1 km/h 99 % 0 mm
04:00 17 °C 16.8 °C 958.2 hPa SW 1.4 km/h 11.1 km/h 99 % 0 mm
04:05 17 °C 16.8 °C 952.5 hPa SW 0.8 km/h 5.6 km/h 99 % 0 mm
04:10 17.1 °C 16.9 °C 952.5 hPa South 3.1 km/h 7.4 km/h 99 % 0 mm
04:15 17.1 °C 16.9 °C 952.5 hPa Calm   5.6 km/h 99 % 0 mm
04:20 17.1 °C 16.9 °C 942 hPa SSW 0.3 km/h 3.7 km/h 99 % 0 mm
04:25 17.1 °C 16.9 °C 930.5 hPa West 0.8 km/h 5.6 km/h 99 % 0.25 mm
04:30 17.1 °C 16.9 °C 930.5 hPa SSW 5.3 km/h 9.3 km/h 99 % 0.25 mm
04:35 17.1 °C 16.9 °C 921.3 hPa SSW 1.3 km/h 6.4 km/h 99 % 0.25 mm
04:40 17 °C 16.8 °C 915.2 hPa Calm     99 % 0.25 mm
04:45 17 °C 16.8 °C 915.2 hPa WSW 6.4 km/h 11.1 km/h 99 % 0.25 mm
04:50 16.9 °C 16.8 °C 915.2 hPa WSW 0.2 km/h 1.9 km/h 99 % 0.25 mm
04:55 16.9 °C 16.8 °C 780.1 hPa WSW 0.5 km/h 3.7 km/h 99 % 0.25 mm
05:00 16.9 °C 16.8 °C 767.3 hPa SW 1.9 km/h 6.4 km/h 99 % 0.25 mm
05:05 16.9 °C 16.8 °C 745.9 hPa WSW 5 km/h 5 km/h 99 % 0.25 mm
05:10 17 °C 16.8 °C 739.5 hPa Calm     99 % 0.25 mm
05:15 17.1 °C 16.9 °C 731.4 hPa WSW 1 km/h 6.4 km/h 99 % 0.25 mm
05:20 17.1 °C 16.9 °C 813 hPa Calm     99 % 0.25 mm
05:25 17.1 °C 16.9 °C 813 hPa Calm     99 % 0.25 mm
05:30 17.2 °C 17 °C 955.9 hPa SW 1.6 km/h 4.8 km/h 99 % 0 mm
05:35 17.2 °C 17.1 °C 960.3 hPa Calm   8 km/h 99 % 0 mm
05:40 17.3 °C 17.1 °C 960.3 hPa SW 1.6 km/h 8 km/h 99 % 0 mm
05:45 17.4 °C 17.2 °C 952.8 hPa WSW 4.5 km/h 5.6 km/h 99 % 0 mm
05:50 17.4 °C 17.3 °C 928.1 hPa SW 3.2 km/h 8 km/h 99 % 0 mm
05:55 17.6 °C 17.4 °C 895.3 hPa Calm   11.3 km/h 99 % 0 mm
06:01 17.7 °C 17.5 °C 820.1 hPa WSW 3.9 km/h 9.3 km/h 99 % 0 mm
06:06 17.7 °C 17.6 °C 802.8 hPa SW 5 km/h 11.1 km/h 99 % 0 mm
06:11 17.8 °C 17.7 °C 802.8 hPa SW 2.6 km/h 6.4 km/h 99 % 0 mm
06:16 17.9 °C 17.7 °C 802.8 hPa SW 0.5 km/h 5.6 km/h 99 % 0 mm
06:21 17.9 °C 17.7 °C 802.8 hPa SW 0.8 km/h 3.7 km/h 99 % 0 mm
06:26 17.9 °C 17.7 °C 802.8 hPa SW 3.1 km/h 7.4 km/h 99 % 0.25 mm
06:31 17.8 °C 17.7 °C 969.1 hPa Calm     99 % 0.25 mm
06:36 17.8 °C 17.6 °C 962.3 hPa Calm   5.6 km/h 99 % 0.25 mm
06:41 17.8 °C 17.6 °C 961.6 hPa Calm   3.2 km/h 99 % 0.25 mm
06:46 17.7 °C 17.6 °C 961.6 hPa Calm     99 % 0.25 mm
06:51 17.7 °C 17.5 °C 938.6 hPa Calm     99 % 0.25 mm
06:56 17.7 °C 17.6 °C 938.6 hPa Calm     99 % 0.25 mm
07:01 17.7 °C 17.6 °C 938.6 hPa Calm     99 % 0.25 mm
07:06 17.7 °C 17.6 °C 938.6 hPa Calm     99 % 0.25 mm
07:11 17.8 °C 17.6 °C 902.4 hPa SW 0.2 km/h 1.9 km/h 99 % 0.25 mm
07:16 17.9 °C 17.7 °C 866.8 hPa SW 3.1 km/h 6.4 km/h 99 % 0.25 mm
07:21 17.9 °C 17.8 °C 936.6 hPa Calm     99 % 0.25 mm
07:26 18 °C 17.8 °C 930.5 hPa Calm     99 % 0 mm
07:31 18.1 °C 17.9 °C 897 hPa Calm   5.6 km/h 99 % 0 mm
07:36 18.1 °C 17.9 °C 897 hPa Calm     99 % 0 mm
07:41 18.1 °C 17.9 °C 865.1 hPa Calm     99 % 0 mm
07:46 18.2 °C 18 °C 946 hPa Calm     99 % 0 mm
07:51 18.2 °C 18.1 °C 946 hPa Calm     99 % 0 mm
07:57 18.3 °C 18.1 °C 946 hPa Calm     99 % 0 mm
08:02 18.3 °C 18.2 °C 946.7 hPa SW 0.5 km/h 3.7 km/h 99 % 0 mm
08:07 18.4 °C 18.2 °C 945 hPa SSE 0.5 km/h 5.6 km/h 99 % 0 mm
08:12 18.4 °C 18.3 °C 943.7 hPa Calm   5.6 km/h 99 % 0 mm
08:17 18.5 °C 18.3 °C 938.6 hPa SSW 2.1 km/h 7.4 km/h 99 % 0 mm
08:22 18.6 °C 18.4 °C 938.6 hPa SW 1.3 km/h 7.4 km/h 99 % 0.25 mm
08:27 18.7 °C 18.5 °C 956.2 hPa SSW 1.1 km/h 5.6 km/h 99 % 0.25 mm
08:32 18.8 °C 18.6 °C 956.2 hPa Calm     99 % 0.25 mm
08:37 18.8 °C 18.7 °C 956.9 hPa SSW 1.4 km/h 9.7 km/h 99 % 0.25 mm
08:42 18.9 °C 18.8 °C 956.9 hPa SSW 1.1 km/h 4.8 km/h 99 % 0.25 mm
08:47 19.1 °C 18.9 °C 956.9 hPa SW 2.4 km/h 9.7 km/h 99 % 0.25 mm
08:52 19.3 °C 19.1 °C 940 hPa SW 4.2 km/h 9.3 km/h 99 % 0.25 mm
08:57 19.4 °C 19.2 °C 940 hPa Calm     99 % 0.25 mm
09:02 19.6 °C 19.4 °C 940 hPa SW 2.6 km/h 5.6 km/h 99 % 0.25 mm
09:07 19.7 °C 19.6 °C 940 hPa Calm   3.7 km/h 99 % 0.25 mm
09:12 19.9 °C 19.8 °C 950.5 hPa SSW 1.9 km/h 3.7 km/h 99 % 0.25 mm
09:17 20.2 °C 20.1 °C 933.5 hPa SSW 1.4 km/h 11.1 km/h 99 % 0.25 mm
09:22 20.4 °C 20.2 °C 930.1 hPa SW 3.9 km/h 5.6 km/h 99 % 0 mm
09:27 20.6 °C 20.4 °C 925.7 hPa SW 10.8 km/h 11.1 km/h 99 % 0 mm
09:32 20.7 °C 20.5 °C 925.7 hPa SW 7.4 km/h 11.3 km/h 99 % 0 mm
09:37 20.8 °C 20.7 °C 925.7 hPa SSW 6.9 km/h 14.8 km/h 99 % 0 mm
09:42 21.1 °C 20.9 °C 925.7 hPa SSW 7.6 km/h 13 km/h 99 % 0 mm
09:47 21.3 °C 21.2 °C 925.7 hPa SW 9.8 km/h 11.3 km/h 99 % 0 mm
09:52 21.4 °C 21.3 °C 925.7 hPa SSW 3.2 km/h 9.3 km/h 99 % 0 mm
09:57 21.6 °C 21.4 °C 958.9 hPa West 5.5 km/h 18.5 km/h 99 % 0 mm
10:03 21.8 °C 21.6 °C 953.8 hPa SW 6.9 km/h 13 km/h 99 % 0 mm
10:08 21.8 °C 21.6 °C 953.8 hPa WSW 1.1 km/h 14.8 km/h 99 % 0 mm
10:13 21.8 °C 21.7 °C 917.6 hPa WSW 8.5 km/h 11.3 km/h 99 % 0.25 mm
10:18 21.9 °C 21.8 °C 917.6 hPa SSW 5.8 km/h 14.8 km/h 99 % 0.25 mm
10:23 22.1 °C 21.9 °C 917.6 hPa South 8.4 km/h 14.8 km/h 99 % 0.25 mm
10:28 22.3 °C 22.2 °C 917.6 hPa WSW 5.5 km/h 14.8 km/h 99 % 0.25 mm
10:33 22.5 °C 22.3 °C 1038.5 hPa SW 5.5 km/h 13 km/h 99 % 0.25 mm
10:38 22.7 °C 22.6 °C 1038.5 hPa WSW 1.9 km/h 5.6 km/h 99 % 0.25 mm
10:43 23 °C 22.7 °C 1038.5 hPa South 4.8 km/h 11.3 km/h 98 % 0.25 mm
10:48 23.4 °C 23.1 °C 1038.5 hPa SSW 5.1 km/h 14.8 km/h 98 % 0.25 mm
10:49 23.4 °C 23.1 °C 1038.5 hPa SSW 5.1 km/h 14.8 km/h 98 % 0.25 mm
10:53 23.4 °C 23.1 °C 1038.5 hPa SSW 5.1 km/h 14.8 km/h 98 % 0.25 mm
10:58 23.4 °C 23.1 °C 1038.5 hPa SSW 5.1 km/h 14.8 km/h 98 % 0.25 mm
11:55 27.4 °C 23 °C 969.4 hPa WNW 0.6 km/h 11.3 km/h 77 % 0.25 mm
12:00 27.6 °C 23.2 °C 966.4 hPa WSW 3.2 km/h 14.8 km/h 77 % 0.51 mm
12:05 27.7 °C 23.1 °C 942.7 hPa WSW 6.3 km/h 16.7 km/h 76 % 0.51 mm
12:10 27.8 °C 23.4 °C 926.1 hPa SW 4.7 km/h 11.1 km/h 77 % 0.51 mm
12:15 27.9 °C 22.9 °C 962 hPa WSW 4 km/h 12.9 km/h 74 % 0.51 mm
12:20 28.1 °C 22.8 °C 958.9 hPa West 8.5 km/h 16.7 km/h 73 % 0.25 mm
12:25 28.1 °C 22.6 °C 956.9 hPa SW 4 km/h 14.8 km/h 72 % 0.25 mm
12:30 28.3 °C 22.3 °C 960.3 hPa WSW 5.5 km/h 16.7 km/h 70 % 0.25 mm
12:35 28.6 °C 22.8 °C 952.8 hPa West 3.4 km/h 16.7 km/h 71 % 0.25 mm
12:40 28.7 °C 22.2 °C 937.6 hPa WSW 8.9 km/h 16.7 km/h 68 % 0.25 mm
12:45 28.7 °C 22.2 °C 960.9 hPa West 1.3 km/h 4.8 km/h 68 % 0.25 mm
12:50 28.6 °C 21.9 °C 960.9 hPa WSW 8.5 km/h 18.5 km/h 67 % 0.25 mm
12:55 28.6 °C 22.4 °C 949.1 hPa WNW 6.4 km/h 8 km/h 69 % 0.25 mm
13:00 28.7 °C 22.4 °C 942.3 hPa SSW 4 km/h 13 km/h 69 % 0 mm
13:05 28.9 °C 22.4 °C 941 hPa SSW 5.3 km/h 11.3 km/h 68 % 0.25 mm
13:10 29 °C 22.5 °C 941 hPa SSW 10.8 km/h 14.8 km/h 68 % 0.25 mm
13:15 29.2 °C 22.2 °C 941 hPa WSW 3.4 km/h 20.4 km/h 66 % 0.25 mm
13:20 29.2 °C 21.7 °C 941 hPa WSW 10.6 km/h 18.5 km/h 64 % 0.25 mm
13:23 29.3 °C 22.3 °C 941 hPa WSW 4.2 km/h 14.8 km/h 66 % 0.25 mm
13:28 29.4 °C 22.1 °C 954.9 hPa SW 2.3 km/h 11.1 km/h 65 % 0.25 mm
13:33 29.6 °C 22 °C 952.1 hPa WSW 5.6 km/h 16.7 km/h 64 % 0.25 mm
13:38 29.6 °C 21.8 °C 952.1 hPa SW 3.7 km/h 22.5 km/h 63 % 0.25 mm
13:43 29.7 °C 21.9 °C 944 hPa WSW 6.9 km/h 16.7 km/h 63 % 0.25 mm
13:48 29.7 °C 21.6 °C 944 hPa SW 12.2 km/h 24.1 km/h 62 % 0.25 mm
13:53 29.7 °C 22.4 °C 944 hPa WNW 7.1 km/h 14.8 km/h 65 % 0.25 mm
13:58 29.8 °C 22.1 °C 944 hPa West 2.1 km/h 5.6 km/h 63 % 0.25 mm
14:03 29.9 °C 21.9 °C 944 hPa WNW 9.2 km/h 18.5 km/h 62 % 0 mm
14:08 30 °C 21.9 °C 944 hPa NW 1.3 km/h 5.6 km/h 62 % 0 mm
14:13 30.1 °C 21.2 °C 944 hPa WSW 5.6 km/h 14.5 km/h 59 % 0.25 mm
14:18 30 °C 20.8 °C 967.4 hPa WSW 5.6 km/h 14.8 km/h 58 % 0.25 mm
14:23 29.8 °C 20.9 °C 965.7 hPa WSW 4.8 km/h 14.8 km/h 59 % 0.25 mm
14:28 29.6 °C 20.4 °C 888.1 hPa WNW 6.9 km/h 18.5 km/h 58 % 0.25 mm
14:33 29.4 °C 20.9 °C 888.1 hPa WNW 1.1 km/h 9.3 km/h 60 % 0.25 mm
14:38 29.4 °C 20.8 °C 893.9 hPa SSW 6 km/h 11.3 km/h 60 % 0.25 mm
14:43 29.4 °C 21.1 °C 893.9 hPa South 2.4 km/h 13 km/h 61 % 0.25 mm
14:48 29.4 °C 20.8 °C 893.9 hPa WSW 4.2 km/h 14.5 km/h 60 % 0.25 mm
14:53 29.3 °C 21 °C 893.9 hPa WSW 4.5 km/h 11.1 km/h 61 % 0.25 mm
14:58 29.3 °C 21 °C 893.9 hPa WSW 4.5 km/h 13 km/h 61 % 0.25 mm
15:03 28.9 °C 20.7 °C 957.6 hPa SW 3.5 km/h 13 km/h 61 % 0.25 mm
15:08 28.8 °C 20.6 °C 954.9 hPa WSW 1.4 km/h 16.7 km/h 61 % 0.25 mm
15:14 28.8 °C 20.6 °C 950.5 hPa West 2.3 km/h 18.5 km/h 61 % 0.51 mm
15:19 28.8 °C 20.5 °C 950.5 hPa SW 7.1 km/h 16.7 km/h 61 % 0.51 mm
15:24 28.7 °C 20.7 °C 901 hPa SW 1.4 km/h 9.3 km/h 62 % 0.25 mm
15:29 28.6 °C 20.1 °C 901 hPa WSW 3.2 km/h 13 km/h 60 % 0.25 mm
15:34 28.5 °C 20.2 °C 901 hPa WSW 0.2 km/h 5.6 km/h 61 % 0.25 mm
15:39 28.4 °C 20.2 °C 901 hPa WSW 1.3 km/h 5.6 km/h 61 % 0.25 mm
15:44 28.4 °C 20.2 °C 901 hPa West 0.8 km/h 13 km/h 61 % 0.25 mm
15:49 28.3 °C 20.1 °C 901 hPa West 0.6 km/h 3.7 km/h 61 % 0.25 mm
15:50 28.3 °C 20.1 °C 901 hPa West 0.6 km/h 3.7 km/h 61 % 0.25 mm
15:54 28.3 °C 20.1 °C 901 hPa West 0.6 km/h 3.7 km/h 61 % 0.25 mm
15:59 28.3 °C 20.1 °C 901 hPa West 0.6 km/h 3.7 km/h 61 % 0.25 mm
16:11 28.4 °C 19.6 °C 770.3 hPa WNW 1.9 km/h 20.9 km/h 59 % 0.25 mm
16:16 28.1 °C 19.6 °C 770.3 hPa NW 3.1 km/h 13 km/h 60 % 0.25 mm
16:21 27.9 °C 19.9 °C 728 hPa NW 4.3 km/h 13 km/h 62 % 0.51 mm
16:26 27.7 °C 20.6 °C 718.2 hPa West 1.6 km/h 5.6 km/h 65 % 0.51 mm
16:31 27.6 °C 20.4 °C 878 hPa West 3.7 km/h 6.4 km/h 65 % 0.51 mm
16:36 27.3 °C 20.1 °C 874.3 hPa WNW 1.6 km/h 6.4 km/h 65 % 0.25 mm
16:41 27.1 °C 20.2 °C 821.1 hPa West 1.6 km/h 7.4 km/h 66 % 0.25 mm
16:46 26.8 °C 19.9 °C 803.8 hPa SW 2.1 km/h 5.6 km/h 66 % 0.25 mm
16:51 26.6 °C 19.9 °C 715.8 hPa West 7.1 km/h 18.5 km/h 67 % 0.25 mm
16:54 26.5 °C 20.1 °C 803.8 hPa NW 1.3 km/h 5.6 km/h 68 % 0.25 mm
16:56 26.5 °C 20.1 °C 803.8 hPa NW 1.3 km/h 5.6 km/h 68 % 0.25 mm
17:01 26.5 °C 20.1 °C 803.8 hPa NW 1.3 km/h 5.6 km/h 68 % 0.25 mm
17:36 25.1 °C 18.9 °C 833.3 hPa West 0.6 km/h 9.7 km/h 69 % 0.25 mm
17:41 24.9 °C 19.1 °C 826.5 hPa WNW 8 km/h 16.1 km/h 70 % 0 mm
17:46 24.7 °C 19.1 °C 826.5 hPa West 1.6 km/h 14.5 km/h 71 % 0 mm
17:51 24.7 °C 19.1 °C 826.5 hPa NW 7.1 km/h 11.3 km/h 71 % 0.25 mm
17:56 24.6 °C 18.9 °C 953.5 hPa WSW 1 km/h 9.3 km/h 71 % 0.51 mm
18:01 24.4 °C 18.8 °C 947.1 hPa NW 4.8 km/h 13 km/h 71 % 0.25 mm
18:06 24.4 °C 19 °C 945 hPa WNW 0.6 km/h 3.7 km/h 72 % 0.25 mm
18:11 24.4 °C 19 °C 945 hPa West 4.7 km/h 5.6 km/h 72 % 0.25 mm
18:14 24.3 °C 19.2 °C 945 hPa WNW 0.8 km/h 5.6 km/h 73 % 0.25 mm
18:16 24.3 °C 19.2 °C 945 hPa WNW 0.8 km/h 5.6 km/h 73 % 0.25 mm
18:21 24.3 °C 19.2 °C 945 hPa WNW 0.8 km/h 5.6 km/h 73 % 0.25 mm
18:38 24.3 °C 19.2 °C 934.9 hPa West 6.1 km/h 6.1 km/h 73 % 0.25 mm
18:43 24.4 °C 19.2 °C 934.9 hPa West 1 km/h 8 km/h 73 % 0.25 mm
18:48 24.4 °C 19.2 °C 934.9 hPa Calm   3.7 km/h 73 % 0.25 mm
18:53 24.4 °C 19.2 °C 934.9 hPa WSW 0.3 km/h 1.9 km/h 73 % 0.25 mm
18:58 24.4 °C 19 °C 958.2 hPa West 0.6 km/h 3.7 km/h 72 % 0.25 mm
19:03 24.3 °C 18.9 °C 955.5 hPa West 0.6 km/h 3.7 km/h 72 % 0.25 mm
19:08 24.3 °C 18.9 °C 949.8 hPa West 0.6 km/h 4.8 km/h 72 % 0.25 mm
19:13 24.2 °C 18.8 °C 886.5 hPa WNW 2.7 km/h 9.3 km/h 72 % 0.25 mm
19:18 24.1 °C 18.4 °C 886.5 hPa WNW 3.2 km/h 12.9 km/h 71 % 0 mm
19:23 23.9 °C 18.4 °C 813 hPa West 1.6 km/h 7.4 km/h 71 % 0 mm
19:28 23.8 °C 18.5 °C 799.1 hPa WNW 1.4 km/h 6.4 km/h 72 % 0 mm
19:33 23.7 °C 18.4 °C 784.5 hPa WNW 2.1 km/h 3.7 km/h 72 % 0 mm
19:38 23.7 °C 18.1 °C 753.7 hPa WNW 4.2 km/h 9.3 km/h 71 % 0 mm
19:43 23.6 °C 18.2 °C 928.8 hPa Calm     72 % 0 mm
19:48 23.4 °C 18.1 °C 928.8 hPa West 2.6 km/h 5.6 km/h 72 % 0 mm
19:53 23.3 °C 18 °C 928.8 hPa Calm   5.6 km/h 72 % 0 mm
19:58 23.3 °C 17.9 °C 928.8 hPa WNW 1.1 km/h 5.6 km/h 72 % 0 mm
20:03 23.1 °C 17.8 °C 928.8 hPa WSW 1.3 km/h 5.6 km/h 72 % 0 mm
20:08 23 °C 17.7 °C 749 hPa West 5.6 km/h 18.5 km/h 72 % 0 mm
20:13 22.9 °C 17.8 °C 749 hPa SW 0.6 km/h 5.6 km/h 73 % 0.25 mm
20:18 22.8 °C 17.7 °C 719.9 hPa West 2.6 km/h 5.6 km/h 73 % 0.25 mm
20:24 22.7 °C 17.6 °C 719.9 hPa WSW 1 km/h 1.9 km/h 73 % 0.25 mm
20:29 22.6 °C 17.4 °C 951.8 hPa WSW 2.7 km/h 11.1 km/h 73 % 0.25 mm
20:34 22.4 °C 17.4 °C 945 hPa West 0.5 km/h 7.4 km/h 73 % 0.25 mm
20:39 22.3 °C 17.3 °C 945 hPa West 0.2 km/h 1.9 km/h 73 % 0.25 mm
20:44 22.2 °C 17.4 °C 945 hPa Calm     74 % 0.25 mm
20:49 22.1 °C 17.3 °C 945 hPa WNW 1.4 km/h 5.6 km/h 74 % 0.25 mm
20:54 22.1 °C 17.3 °C 945 hPa WNW 1.4 km/h 5.6 km/h 74 % 0.25 mm
20:59 22.1 °C 17.3 °C 945 hPa WNW 1.4 km/h 5.6 km/h 74 % 0.25 mm
21:42 21 °C 16.4 °C 862.8 hPa Calm   5.6 km/h 75 % 0.25 mm
21:47 20.9 °C 16.3 °C 860.4 hPa West 1 km/h 3.7 km/h 75 % 0.25 mm
21:52 20.8 °C 16.4 °C 860.4 hPa WNW 1.1 km/h 5.6 km/h 76 % 0.25 mm
21:57 20.8 °C 16.4 °C 926.1 hPa WNW 3.1 km/h 11.1 km/h 76 % 0.25 mm
22:02 20.7 °C 16.1 °C 923.7 hPa WNW 4 km/h 9.3 km/h 75 % 0.25 mm
22:07 20.6 °C 15.9 °C 923.7 hPa WNW 1 km/h 3.7 km/h 75 % 0 mm
22:12 20.4 °C 15.9 °C 923.7 hPa WNW 0.2 km/h 5.6 km/h 75 % 0 mm
22:17 20.4 °C 16 °C 923.7 hPa WNW 1.4 km/h 8 km/h 76 % 0 mm
22:22 20.3 °C 15.9 °C 923.7 hPa WNW 1.9 km/h 9.3 km/h 76 % 0 mm
22:27 20.2 °C 15.8 °C 975.2 hPa WNW 1 km/h 3.7 km/h 76 % 0 mm
22:32 20.1 °C 15.6 °C 976.9 hPa Calm     75 % 0 mm
22:37 19.9 °C 15.4 °C 972.5 hPa WNW 1 km/h 6.4 km/h 75 % 0.25 mm
22:42 19.9 °C 15.3 °C 971.8 hPa NW 0.3 km/h 1.6 km/h 75 % 0.25 mm
22:47 19.8 °C 15.2 °C 970.4 hPa WNW 3.7 km/h 13 km/h 75 % 0.25 mm
22:52 19.7 °C 15.3 °C 966 hPa North 2.6 km/h 9.3 km/h 76 % 0.25 mm
22:57 19.5 °C 14.9 °C 965 hPa NNE 3.9 km/h 9.7 km/h 75 % 0.25 mm
23:02 19.3 °C 14.8 °C 905.1 hPa NNE 0.2 km/h 9.3 km/h 75 % 0.25 mm
23:07 19.2 °C 14.6 °C 895.3 hPa Calm   5.6 km/h 75 % 0.25 mm
23:12 19.1 °C 14.5 °C 891.5 hPa NNW 1.9 km/h 11.1 km/h 75 % 0.25 mm
23:17 18.9 °C 14.6 °C 891.5 hPa NNE 2.1 km/h 5.6 km/h 76 % 0.25 mm
Crab Meadow Weather
Compliments of Weather Underground - 2.75 mb

Script developed by  Jim McMurry - jmcmurry@mwt.net Adapted for the template by  Wim van der Kuil - Leuven-Template.eu

Weather Terms: Ice Storm Warning - Accumulations of 1/4 inch or more of freezing rain.